Time;durP1;ratioP1;P1;durP2;ratioP2;P2;SDS_P1;SDS_P2;PMS_P1;PMS_P2;Temp;Humidity;BMP_temperature;BMP_pressure;BME280_temperature;BME280_humidity;BME280_pressure;Samples;Min_cycle;Max_cycle;Signal;HPM_P1;HPM_P2
2022/12/20 00:01:40;;;;;;;20.77;13.85;;;3.40;99.90;;;;;;5093102;28;20222;-91
2022/12/20 00:04:13;;;;;;;26.75;17.33;;;;;;;;;;5091579;28;20234;-91
2022/12/20 00:06:46;;;;;;;27.40;16.80;;;;;;;;;;5095376;28;20263;-90
2022/12/20 00:09:17;;;;;;;22.90;13.95;;;;;;;;;;5091595;28;20229;-90
2022/12/20 00:17:19;;;;;;;24.30;15.98;;;;;;;;;;5077480;28;20202;-91
2022/12/20 00:19:53;;;;;;;24.88;14.25;;;;;;;;;;5079599;28;20265;-91
2022/12/20 00:22:29;;;;;;;25.63;14.80;;;;;;;;;;5079634;28;20197;-92
2022/12/20 00:25:05;;;;;;;20.90;13.32;;;;;;;;;;5080094;28;20234;-91
2022/12/20 00:27:33;;;;;;;21.50;13.93;;;;;;;;;;5079073;28;20218;-91
2022/12/20 00:30:00;;;;;;;24.90;14.48;;;;;;;;;;5079180;28;20664;-90
2022/12/20 00:32:28;;;;;;;21.17;13.68;;;;;;;;;;5087656;28;20186;-90
2022/12/20 00:34:55;;;;;;;19.70;13.50;;;;;;;;;;5080500;28;20206;-90
2022/12/20 00:37:31;;;;;;;24.10;15.02;;;;;;;;;;5078521;28;20231;-91
2022/12/20 00:39:58;;;;;;;22.48;14.13;;;;;;;;;;5077644;28;20183;-91
2022/12/20 00:42:27;;;;;;;24.63;14.85;;;;;;;;;;5078558;28;20249;-91
2022/12/20 00:45:02;;;;;;;25.23;13.40;;;;;;;;;;5078118;28;20218;-91
2022/12/20 00:47:33;;;;;;;21.27;14.40;;;;;;;;;;5078832;28;20601;-91
2022/12/20 00:50:01;;;;;;;21.20;14.60;;;;;;;;;;5078188;28;20566;-91
2022/12/20 00:52:35;;;;;;;23.25;14.30;;;;;;;;;;5078375;28;20198;-91
2022/12/20 00:55:02;;;;;;;26.35;15.20;;;;;;;;;;5078786;28;20277;-91
2022/12/20 00:57:33;;;;;;;23.02;13.85;;;;;;;;;;5087797;28;20210;-90
2022/12/20 01:00:02;;;;;;;21.67;13.48;;;;;;;;;;5083037;28;20207;-91
2022/12/20 01:02:30;;;;;;;18.45;12.98;;;;;;;;;;5079286;28;20202;-90
2022/12/20 01:05:01;;;;;;;18.30;12.45;;;;;;;;;;5078112;28;20225;-90
2022/12/20 01:07:35;;;;;;;27.60;14.05;;;;;;;;;;5078509;28;20274;-90
2022/12/20 01:10:05;;;;;;;18.90;12.75;;;;;;;;;;5085579;28;20229;-90
2022/12/20 01:12:35;;;;;;;16.83;13.40;;;;;;;;;;5098899;28;20194;-89
2022/12/20 01:15:08;;;;;;;23.90;12.85;;;;;;;;;;5099171;28;20182;-89
2022/12/20 01:17:41;;;;;;;24.58;13.60;;;;;;;;;;5099217;28;20174;-89
2022/12/20 01:20:19;;;;;;;21.63;12.93;;;;;;;;;;5098921;28;20254;-90
2022/12/20 01:22:51;;;;;;;23.20;13.93;;;;;;;;;;5091918;28;20198;-91
2022/12/20 01:25:23;;;;;;;18.67;12.80;;;;;;;;;;5083402;28;20229;-90
2022/12/20 01:27:56;;;;;;;21.92;14.63;;;;;;;;;;5079523;28;20194;-90
2022/12/20 01:30:29;;;;;;;19.15;13.55;;;;;;;;;;5077778;28;20203;-91
2022/12/20 01:33:07;;;;;;;22.75;13.38;;;;;;;;;;5076919;28;20272;-91
2022/12/20 01:35:45;;;;;;;20.02;13.32;;;;;;;;;;5084840;28;20201;-90
2022/12/20 01:38:16;;;;;;;21.35;13.90;;;;;;;;;;5089429;28;20205;-90
2022/12/20 01:40:56;;;;;;;21.25;12.77;;;;;;;;;;5078014;28;20209;-91
2022/12/20 01:43:47;;;;;;;21.98;13.57;;;3.80;1.00;;;;;;5083743;28;20206;-90
2022/12/20 03:16:24;;;;;;;18.27;11.70;;;;;;;;;;5117973;22;20246;-90
2022/12/20 03:18:55;;;;;;;17.85;12.30;;;;;;;;;;5059838;28;20214;-91
2022/12/20 03:21:24;;;;;;;22.58;12.18;;;;;;;;;;5059891;28;20210;-91
2022/12/20 03:23:56;;;;;;;16.95;11.85;;;;;;;;;;5060765;28;20265;-91
2022/12/20 03:26:23;;;;;;;20.23;12.80;;;;;;;;;;5069527;28;20246;-91
2022/12/20 03:28:54;;;;;;;19.63;11.40;;;;;;;;;;5059374;28;20234;-91
2022/12/20 03:31:30;;;;;;;21.33;12.27;;;;;;;;;;5064860;28;20199;-90
2022/12/20 03:34:08;;;;;;;18.52;12.05;;;;;;;;;;5080973;28;20191;-90
2022/12/20 03:36:46;;;;;;;18.95;11.15;;;;;;;;;;5079958;28;20229;-90
2022/12/20 03:39:20;;;;;;;19.52;12.02;;;;;;;;;;5068226;28;20191;-91
2022/12/20 03:41:56;;;;;;;24.10;12.50;;;;;;;;;;5055665;28;20262;-91
2022/12/20 03:44:27;;;;;;;19.30;11.48;;;;;;;;;;5066999;28;20231;-91
2022/12/20 03:47:01;;;;;;;19.02;11.75;;;;;;;;;;5061045;28;20229;-92
2022/12/20 03:49:30;;;;;;;19.25;11.57;;;;;;;;;;5060372;28;20207;-90
2022/12/20 03:52:01;;;;;;;19.13;11.85;;;;;;;;;;5060464;28;20260;-91
2022/12/20 03:54:31;;;;;;;20.73;12.25;;;;;;;;;;5060663;28;20313;-91
2022/12/20 03:57:03;;;;;;;17.10;11.52;;;;;;;;;;5061300;28;20720;-92
2022/12/20 03:59:32;;;;;;;16.55;11.50;;;;;;;;;;5061794;28;20203;-92
2022/12/20 04:02:05;;;;;;;18.63;11.35;;;;;;;;;;5062366;28;20207;-91
2022/12/20 04:04:38;;;;;;;20.98;12.38;;;;;;;;;;5062101;28;20310;-91
2022/12/20 04:07:20;;;;;;;17.15;12.70;;;;;;;;;;5061035;28;20333;-89
2022/12/20 04:09:47;;;;;;;17.33;11.00;;;;;;;;;;5060173;28;20217;-90
2022/12/20 04:12:19;;;;;;;18.73;12.45;;;;;;;;;;5075699;28;20198;-91
2022/12/20 04:14:51;;;;;;;22.23;11.20;;;;;;;;;;5075271;28;20215;-91
2022/12/20 04:17:36;;;;;;;18.25;11.85;;;;;;;;;;5078955;28;20207;-91
2022/12/20 04:20:17;;;;;;;15.65;11.20;;;;;;;;;;5071447;28;20203;-90
2022/12/20 04:22:55;;;;;;;18.15;11.23;;;;;;;;;;5079113;28;20210;-89
2022/12/20 04:25:24;;;;;;;15.20;11.05;;;;;;;;;;5077808;28;20215;-90
2022/12/20 04:27:56;;;;;;;15.98;11.65;;;;;;;;;;5061149;28;20211;-90
2022/12/20 04:30:26;;;;;;;15.45;11.80;;;;;;;;;;5062763;28;20274;-91
2022/12/20 04:32:56;;;;;;;17.00;11.18;;;;;;;;;;5070764;28;20211;-91
2022/12/20 04:35:41;;;;;;;17.38;11.15;;;;;;;;;;5078998;28;20223;-91
2022/12/20 04:38:19;;;;;;;17.15;10.32;;;;;;;;;;5077794;28;20203;-91
2022/12/20 04:40:48;;;;;;;18.58;11.82;;;;;;;;;;5072119;28;20626;-91
2022/12/20 04:43:22;;;;;;;15.60;11.07;;;;;;;;;;5066828;28;20309;-91
2022/12/20 04:45:59;;;;;;;20.67;12.77;;;4.10;1.00;;;;;;5061230;28;20400;-91
2022/12/20 04:48:41;;;;;;;19.50;12.27;;;;;;;;;;5063090;28;20195;-91
2022/12/20 04:51:19;;;;;;;19.27;12.43;;;;;;;;;;5062885;28;20217;-91
2022/12/20 04:56:42;;;;;;;16.73;12.20;;;4.00;1.00;;;;;;5060149;28;20203;-91
2022/12/20 04:59:21;;;;;;;15.82;11.15;;;;;;;;;;5064352;28;20654;-91
2022/12/20 05:02:01;;;;;;;18.02;10.48;;;;;;;;;;5065257;28;20221;-91
2022/12/20 05:04:35;;;;;;;18.10;11.40;;;;;;;;;;5061386;28;20314;-91
2022/12/20 05:07:07;;;;;;;18.65;12.20;;;;;;;;;;5057972;28;20256;-92
2022/12/20 05:09:34;;;;;;;16.75;12.73;;;;;;;;;;5057553;28;20211;-92
2022/12/20 05:12:04;;;;;;;20.35;13.43;;;;;;;;;;5063881;28;20246;-90
2022/12/20 05:14:35;;;;;;;17.38;12.88;;;;;;;;;;5062476;28;20219;-91
2022/12/20 05:17:14;;;;;;;19.35;12.63;;;;;;;;;;5060626;28;20257;-91
2022/12/20 05:19:48;;;;;;;17.13;12.40;;;;;;;;;;5058943;28;20184;-91
2022/12/20 05:28:07;;;;;;;17.52;12.18;;;;;;;;;;5070364;28;20708;-91
2022/12/20 05:30:50;;;;;;;17.98;11.38;;;;;;;;;;5060013;28;20290;-90
2022/12/20 05:33:42;;;;;;;18.52;12.93;;;;;;;;;;5063135;28;20207;-91
2022/12/20 05:36:14;;;;;;;17.40;11.82;;;;;;;;;;5061789;28;20297;-90
2022/12/20 05:38:48;;;;;;;17.08;12.75;;;;;;;;;;5067998;28;20207;-90
2022/12/20 05:41:30;;;;;;;20.05;12.30;;;;;;;;;;5066910;28;20293;-90
2022/12/20 05:44:14;;;;;;;18.38;11.15;;;4.20;1.00;;;;;;5069195;28;20565;-90
2022/12/20 05:46:43;;;;;;;17.10;11.90;;;;;;;;;;5071868;28;20195;-91
2022/12/20 05:49:28;;;;;;;20.88;12.65;;;4.20;1.00;;;;;;5073645;28;20657;-91
2022/12/20 05:52:09;;;;;;;23.25;12.95;;;;;;;;;;5074714;28;20214;-90
2022/12/20 05:54:40;;;;;;;20.05;11.88;;;;;;;;;;5071063;28;20238;-91
2022/12/20 05:57:13;;;;;;;15.85;10.73;;;;;;;;;;5067511;28;20199;-91
2022/12/20 05:59:44;;;;;;;15.95;11.63;;;;;;;;;;5061984;28;20199;-91
2022/12/20 06:02:13;;;;;;;19.30;12.85;;;;;;;;;;5058810;28;20217;-91
2022/12/20 06:04:46;;;;;;;15.02;10.68;;;;;;;;;;5057274;28;20653;-91
2022/12/20 06:07:17;;;;;;;15.63;11.85;;;;;;;;;;5057762;28;20294;-91
2022/12/20 06:12:48;;;;;;;13.82;9.98;;;;;;;;;;5054118;28;20277;-92
2022/12/20 06:15:29;;;;;;;23.85;13.23;;;;;;;;;;5060716;28;20238;-92
2022/12/20 06:18:12;;;;;;;18.83;11.80;;;;;;;;;;5057561;28;20211;-91
2022/12/20 06:20:55;;;;;;;16.95;10.85;;;;;;;;;;5057428;28;20194;-92
2022/12/20 06:23:36;;;;;;;16.42;12.13;;;;;;;;;;5058804;28;20202;-91
2022/12/20 06:29:01;;;;;;;18.13;11.25;;;;;;;;;;5058914;28;20203;-91
2022/12/20 06:31:46;;;;;;;19.27;12.20;;;;;;;;;;5063181;28;20265;-91
2022/12/20 06:34:32;;;;;;;18.35;13.07;;;;;;;;;;5059709;28;20203;-90
2022/12/20 06:37:35;;;;;;;18.45;11.80;;;4.80;1.00;;;;;;5059901;28;20630;-91
2022/12/20 06:40:34;;;;;;;20.77;13.38;;;4.80;1.00;;;;;;5062333;28;20255;-91
2022/12/20 06:43:49;;;;;;;;;;;;;;;;;;;;;
2022/12/20 06:46:24;;;;;;;22.85;13.95;;;;;;;;;;5065297;28;20222;-92
2022/12/20 06:49:03;;;;;;;19.65;11.65;;;;;;;;;;5062705;28;20233;-92
2022/12/20 06:54:41;;;;;;;23.08;14.05;;;;;;;;;;5048640;28;20198;-92
2022/12/20 06:57:18;;;;;;;20.48;11.93;;;;;;;;;;5066680;28;20207;-92
2022/12/20 07:00:09;;;;;;;15.27;11.60;;;;;;;;;;5065186;28;20292;-92
2022/12/20 09:29:36;;;;;;;25.40;15.20;;;;;;;;;;4715254;22;20221;-90
2022/12/20 09:42:41;;;;;;;24.90;15.85;;;;;;;;;;3268812;26;20211;-92
2022/12/20 09:48:52;;;;;;;27.83;16.33;;;6.20;99.90;;;;;;5023160;28;20314;-91
2022/12/20 12:37:58;;;;;;;18.40;11.88;;;7.70;99.90;;;;;;5020367;28;20487;-92
2022/12/20 12:44:12;;;;;;;22.10;13.33;;;7.70;99.90;;;;;;5071604;22;22658;-92
2022/12/20 12:47:19;;;;;;;18.45;10.73;;;7.60;99.90;;;;;;4967336;29;20465;-92
2022/12/20 13:05:08;;;;;;;18.63;12.77;;;7.70;99.90;;;;;;3193499;26;20244;-92
2022/12/20 15:17:24;;;;;;;19.45;13.30;;;;;;;;;;5247776;22;20222;-90
2022/12/20 15:20:28;;;;;;;20.92;11.80;;;7.10;99.90;;;;;;5080766;28;20192;-92
2022/12/20 15:23:08;;;;;;;;;;;;;;;;;;;;;
2022/12/20 15:25:49;;;;;;;19.25;13.95;;;;;;;;;;5069684;28;20267;-92
2022/12/20 15:28:36;;;;;;;19.02;12.65;;;7.00;99.90;;;;;;5080462;28;20240;-92
2022/12/20 15:31:40;;;;;;;18.35;12.38;;;7.00;99.90;;;;;;5073209;28;20676;-92
2022/12/20 15:34:40;;;;;;;18.58;12.65;;;6.90;99.90;;;;;;5053947;28;20230;-92
2022/12/20 15:37:30;;;;;;;22.35;13.80;;;6.90;99.90;;;;;;5064751;28;20204;-92
2022/12/20 15:42:53;;;;;;;25.73;13.45;;;;;;;;;;5065112;28;20701;-93
2022/12/20 15:45:33;;;;;;;24.45;14.30;;;;;;;;;;5075587;28;20179;-91
2022/12/20 15:51:04;;;;;;;20.63;13.30;;;6.80;1.00;;;;;;5056747;28;20229;-92
2022/12/20 15:53:43;;;;;;;24.13;14.77;;;6.80;1.00;;;;;;5065385;28;20714;-93
2022/12/20 15:56:47;;;;;;;21.40;14.48;;;6.80;1.00;;;;;;5068108;28;20557;-93
2022/12/20 15:59:29;;;;;;;22.55;15.10;;;;;;;;;;5059563;28;20211;-91
2022/12/20 16:02:06;;;;;;;19.42;14.18;;;;;;;;;;5065778;28;20213;-92
2022/12/20 16:04:43;;;;;;;21.55;14.27;;;;;;;;;;5067521;28;20191;-92
2022/12/20 16:10:03;;;;;;;18.80;13.50;;;;;;;;;;5072983;28;20214;-92
2022/12/20 16:12:41;;;;;;;22.58;13.63;;;;;;;;;;5079263;28;20218;-91
2022/12/20 16:18:36;;;;;;;21.45;14.20;;;6.50;1.00;;;;;;5076870;28;20283;-92
2022/12/20 16:21:41;;;;;;;19.50;12.80;;;;;;;;;;5071986;28;20195;-92
2022/12/20 16:24:55;;;;;;;23.55;14.77;;;6.50;99.90;;;;;;5079094;28;20221;-92
2022/12/20 16:31:23;;;;;;;22.25;13.63;;;;;;;;;;5078698;28;20243;-92
2022/12/20 16:37:43;;;;;;;24.92;14.57;;;6.20;99.90;;;;;;5078390;28;20231;-91
2022/12/20 16:43:06;;;;;;;21.40;13.18;;;;;;;;;;5062428;28;20227;-92
2022/12/20 16:45:43;;;;;;;21.73;13.85;;;;;;;;;;5070435;28;20194;-91
2022/12/20 16:48:40;;;;;;;27.30;15.75;;;;;;;;;;5079248;28;20210;-89
2022/12/20 16:51:35;;;;;;;22.92;15.57;;;;;;;;;;5079197;28;20195;-91
2022/12/20 16:54:28;;;;;;;;;;;;;;;;;;;;;
2022/12/20 16:56:57;;;;;;;24.15;14.50;;;;;;;;;;5077086;28;20195;-92
2022/12/20 17:02:36;;;;;;;;;;;;;;;;;;;;;
2022/12/20 17:05:11;;;;;;;20.77;15.30;;;;;;;;;;5079036;28;20185;-89
2022/12/20 17:07:55;;;;;;;17.95;13.20;;;;;;;;;;5078850;28;20230;-89
2022/12/20 17:10:34;;;;;;;27.15;14.50;;;;;;;;;;5078605;28;20259;-91
2022/12/20 17:13:09;;;;;;;22.92;15.23;;;;;;;;;;5078680;28;20228;-90
2022/12/20 17:16:00;;;;;;;27.10;15.55;;;;;;;;;;5075019;28;20195;-92
2022/12/20 17:18:32;;;;;;;24.35;14.77;;;;;;;;;;5069651;28;20384;-92
2022/12/20 17:21:06;;;;;;;25.83;15.45;;;;;;;;;;5069973;28;20266;-92
2022/12/20 17:23:36;;;;;;;39.05;24.25;;;;;;;;;;5075198;28;20219;-92
2022/12/20 17:26:08;;;;;;;30.23;16.60;;;;;;;;;;5069522;28;20519;-93
2022/12/20 17:28:36;;;;;;;31.88;16.83;;;;;;;;;;5078368;28;20215;-90
2022/12/20 17:31:30;;;;;;;24.67;14.40;;;6.00;99.90;;;;;;5073933;28;20230;-92
2022/12/20 17:34:17;;;;;;;25.88;14.52;;;5.90;1.00;;;;;;5058893;28;20234;-93
2022/12/20 17:37:23;;;;;;;27.60;15.77;;;5.90;1.00;;;;;;5065026;28;20230;-91
2022/12/20 17:39:55;;;;;;;24.80;15.30;;;;;;;;;;5063879;28;20213;-91
2022/12/20 17:48:56;;;;;;;24.73;15.30;;;6.00;99.90;;;;;;5070372;28;20289;-92
2022/12/20 17:52:32;;;;;;;22.70;14.15;;;6.00;99.90;;;;;;5077553;28;20226;-91
2022/12/20 17:55:18;;;;;;;32.03;16.35;;;;;;;;;;4977762;28;20205;-89
2022/12/20 18:30:35;;;;;;;20.52;14.63;;;6.30;99.90;;;;;;4793925;29;20255;-85
2022/12/20 18:33:14;;;;;;;22.67;14.90;;;;;;;;;;4885620;29;20677;-86
2022/12/20 18:36:21;;;;;;;23.23;15.13;;;;;;;;;;4888908;29;20279;-82
2022/12/20 18:46:22;;;;;;;26.15;16.60;;;6.50;1.00;;;;;;4838067;29;20205;-81
2022/12/20 19:07:26;;;;;;;;;;;;;;;;;;;;;
2022/12/20 19:49:04;;;;;;;36.08;19.13;;;;;;;;;;6100067;23;20259;-84
2022/12/20 19:55:13;;;;;;;27.02;16.15;;;6.00;1.00;;;;;;6181209;23;20196;-85
2022/12/20 20:48:17;;;;;;;28.73;15.70;;;6.10;1.00;;;;;;6118110;23;20660;-82
2022/12/20 21:09:01;;;;;;;30.10;17.08;;;5.90;27.50;;;;;;6112809;23;20593;-81
2022/12/20 21:12:31;;;;;;;33.00;19.15;;;5.80;36.10;;;;;;6056928;23;20184;-81
2022/12/20 21:28:20;;;;;;;25.50;15.68;;;5.80;1.00;;;;;;5969680;24;20533;-81
2022/12/20 22:44:29;;;;;;;28.33;17.52;;;5.90;1.00;;;;;;5923321;23;20298;-83
2022/12/20 22:54:46;;;;;;;24.45;15.65;;;6.10;1.00;;;;;;6017974;23;20188;-84
